createdAt,value
2018-12-09T00:03:53.326Z,4.00
2018-12-09T00:07:56.214Z,4.00
2018-12-09T00:11:59.125Z,3.87
2018-12-09T00:16:02.286Z,3.73
2018-12-09T00:20:05.241Z,4.17
2018-12-09T00:24:08.193Z,4.10
2018-12-09T00:28:11.174Z,5.70
2018-12-09T00:32:14.333Z,4.50
2018-12-09T00:36:17.297Z,6.00
2018-12-09T00:40:20.242Z,5.10
2018-12-09T00:44:23.480Z,5.97
2018-12-09T00:48:26.359Z,4.97
2018-12-09T00:52:29.233Z,4.87
2018-12-09T00:56:32.494Z,4.03
2018-12-09T01:00:35.441Z,5.00
2018-12-09T01:04:38.598Z,5.23
2018-12-09T01:08:41.562Z,4.50
2018-12-09T01:12:44.511Z,6.70
2018-12-09T01:16:47.465Z,5.40
2018-12-09T01:20:50.422Z,6.00
2018-12-09T01:24:53.302Z,5.40
2018-12-09T01:28:56.270Z,6.27
2018-12-09T01:32:59.533Z,6.67
2018-12-09T01:37:02.402Z,5.40
2018-12-09T01:41:05.578Z,5.97
2018-12-09T01:45:08.601Z,4.10
2018-12-09T01:49:11.845Z,3.63
2018-12-09T01:53:26.670Z,6.03
2018-12-09T01:57:29.593Z,4.30
2018-12-09T02:01:32.633Z,5.00
2018-12-09T02:05:35.817Z,4.03
2018-12-09T02:09:39.142Z,4.80
2018-12-09T02:13:42.225Z,5.00
2018-12-09T02:17:45.238Z,5.90
2018-12-09T02:21:48.197Z,4.20
2018-12-09T02:25:51.151Z,5.03
2018-12-09T02:29:54.347Z,6.57
2018-12-09T02:33:57.306Z,6.07
2018-12-09T02:38:00.269Z,4.60
2018-12-09T02:42:03.308Z,5.77
2018-12-09T02:46:06.648Z,4.90
2018-12-09T02:50:09.620Z,5.60
2018-12-09T02:54:12.718Z,5.67
2018-12-09T02:58:15.617Z,5.23
2018-12-09T03:02:18.663Z,6.10
2018-12-09T03:06:21.910Z,5.10
2018-12-09T03:10:25.209Z,5.20
2018-12-09T03:14:28.271Z,4.63
2018-12-09T03:18:31.266Z,6.23
2018-12-09T03:22:34.291Z,5.13
2018-12-09T03:26:37.242Z,5.27
2018-12-09T03:30:40.455Z,5.37
2018-12-09T03:34:43.514Z,4.40
2018-12-09T03:38:46.752Z,3.10
2018-12-09T03:42:50.017Z,3.67
2018-12-09T03:46:53.101Z,3.50
2018-12-09T03:50:56.259Z,4.20
2018-12-09T03:54:59.198Z,3.40
2018-12-09T03:59:02.451Z,3.67
2018-12-09T04:03:05.501Z,5.97
2018-12-09T04:07:08.533Z,4.17
2018-12-09T04:11:11.420Z,3.80
2018-12-09T04:15:14.854Z,2.93
2018-12-09T04:19:17.874Z,3.90
2018-12-09T04:23:20.968Z,4.00
2018-12-09T04:27:23.925Z,4.93
2018-12-09T04:31:27.033Z,5.17
2018-12-09T04:35:30.194Z,4.10
2018-12-09T04:39:33.077Z,3.33
2018-12-09T04:43:36.337Z,3.83
2018-12-09T04:47:39.683Z,3.43
2018-12-09T04:51:55.493Z,2.33
2018-12-09T04:55:58.585Z,1.93
2018-12-09T05:00:07.033Z,2.30
2018-12-09T05:04:09.990Z,2.17
2018-12-09T05:08:12.954Z,3.13
2018-12-09T05:12:16.123Z,2.47
2018-12-09T05:16:19.210Z,2.60
2018-12-09T05:20:22.253Z,2.80
2018-12-09T05:24:25.206Z,3.50
2018-12-09T05:28:28.386Z,4.10
2018-12-09T05:32:31.426Z,4.67
2018-12-09T05:36:34.468Z,3.93
2018-12-09T05:40:37.505Z,3.30
2018-12-09T05:44:40.765Z,2.03
2018-12-09T05:48:43.666Z,1.50
2018-12-09T05:52:46.729Z,1.40
2018-12-09T05:56:49.619Z,1.37
2018-12-09T06:00:52.537Z,1.40
2018-12-09T06:04:55.813Z,2.00
2018-12-09T06:08:58.794Z,1.40
2018-12-09T06:13:01.768Z,1.37
2018-12-09T06:17:04.771Z,1.60
2018-12-09T06:21:07.678Z,1.50
2018-12-09T06:25:10.676Z,1.40
2018-12-09T06:29:13.616Z,0.97
2018-12-09T06:33:16.835Z,1.77
2018-12-09T06:37:19.709Z,1.77
2018-12-09T06:41:22.995Z,1.30
2018-12-09T06:45:26.211Z,1.17
2018-12-09T06:49:29.241Z,1.53
2018-12-09T06:53:32.158Z,1.40
2018-12-09T06:57:35.133Z,1.63
2018-12-09T07:01:38.553Z,2.03
2018-12-09T07:05:41.502Z,2.00
2018-12-09T07:09:44.398Z,1.80
2018-12-09T07:13:47.382Z,2.03
2018-12-09T07:17:50.538Z,2.30
2018-12-09T07:21:53.517Z,2.13
2018-12-09T07:25:56.434Z,2.77
2018-12-09T07:30:02.466Z,2.80
2018-12-09T07:34:04.494Z,4.00
2018-12-09T07:38:07.962Z,3.23
2018-12-09T07:42:10.929Z,2.90
2018-12-09T07:46:15.218Z,2.90
2018-12-09T07:50:18.405Z,5.17
2018-12-09T07:54:21.311Z,4.20
2018-12-09T07:58:24.506Z,3.77
2018-12-09T08:02:27.444Z,4.63
2018-12-09T08:06:30.552Z,3.33
2018-12-09T08:10:33.441Z,3.80
2018-12-09T08:14:36.564Z,3.63
2018-12-09T08:18:39.842Z,4.03
2018-12-09T08:22:42.800Z,4.60
2018-12-09T08:26:45.704Z,3.80
2018-12-09T08:30:48.861Z,2.50
2018-12-09T08:34:51.767Z,2.63
2018-12-09T08:38:54.686Z,3.13
2018-12-09T08:42:57.722Z,2.10
2018-12-09T08:47:00.692Z,3.00
2018-12-09T08:51:03.693Z,3.20
2018-12-09T08:55:06.718Z,3.00
2018-12-09T08:59:10.023Z,2.40
2018-12-09T09:03:12.978Z,2.27
2018-12-09T09:07:16.186Z,2.80
2018-12-09T09:11:19.166Z,3.37
2018-12-09T09:15:22.135Z,2.47
2018-12-09T09:19:25.094Z,3.00
2018-12-09T09:23:28.290Z,2.80
2018-12-09T09:27:31.173Z,4.20
2018-12-09T09:31:34.158Z,2.47
2018-12-09T09:35:37.259Z,2.53
2018-12-09T09:39:40.145Z,2.30
2018-12-09T09:43:43.027Z,2.00
2018-12-09T09:47:46.325Z,1.43
2018-12-09T09:51:49.616Z,1.40
2018-12-09T09:55:52.492Z,1.53
2018-12-09T09:59:55.369Z,1.23
2018-12-09T10:03:58.282Z,1.70
2018-12-09T10:08:01.226Z,2.80
2018-12-09T10:12:04.446Z,2.20
2018-12-09T10:16:07.349Z,2.57
2018-12-09T10:20:10.306Z,4.53
2018-12-09T10:24:13.211Z,2.20
2018-12-09T10:28:16.180Z,2.80
2018-12-09T10:32:20.214Z,1.97
2018-12-09T10:36:23.200Z,2.23
2018-12-09T10:40:26.575Z,2.47
2018-12-09T10:44:29.670Z,3.20
2018-12-09T10:48:32.585Z,2.10
2018-12-09T10:52:35.555Z,3.33
2018-12-09T10:56:38.707Z,2.73
2018-12-09T11:00:47.125Z,2.07
2018-12-09T11:04:50.105Z,2.80
2018-12-09T11:08:53.311Z,4.30
2018-12-09T11:12:56.189Z,2.50
2018-12-09T11:16:59.205Z,2.10
2018-12-09T11:21:02.225Z,2.90
2018-12-09T11:25:05.393Z,2.00
2018-12-09T11:29:08.281Z,1.83
2018-12-09T11:33:11.181Z,2.33
2018-12-09T11:37:14.365Z,5.30
2018-12-09T11:41:17.257Z,3.10
2018-12-09T11:45:20.354Z,3.20
2018-12-09T11:49:23.518Z,3.40
2018-12-09T11:53:26.427Z,2.20
2018-12-09T11:57:29.526Z,2.40
2018-12-09T12:01:32.397Z,4.80
2018-12-09T12:05:35.369Z,1.73
2018-12-09T12:09:44.847Z,2.37
2018-12-09T12:13:48.018Z,2.23
2018-12-09T12:17:50.974Z,2.87
2018-12-09T12:21:53.850Z,1.70
2018-12-09T12:25:57.207Z,2.30
2018-12-09T12:30:00.089Z,2.40
2018-12-09T12:34:02.978Z,3.63
2018-12-09T12:38:06.163Z,1.70
2018-12-09T12:42:09.285Z,2.80
2018-12-09T12:46:12.245Z,2.60
2018-12-09T12:50:15.474Z,2.77
2018-12-09T12:54:18.361Z,2.10
2018-12-09T12:58:21.225Z,4.47
2018-12-09T13:02:24.402Z,1.40
2018-12-09T13:06:27.676Z,2.00
2018-12-09T13:10:31.452Z,1.50
2018-12-09T13:14:34.595Z,1.83
2018-12-09T13:18:37.846Z,2.10
2018-12-09T13:22:40.741Z,2.40
2018-12-09T13:26:43.644Z,3.27
2018-12-09T13:30:46.583Z,2.20
2018-12-09T13:34:49.466Z,1.63
2018-12-09T13:38:52.347Z,3.50
2018-12-09T13:42:55.285Z,2.90
2018-12-09T13:46:58.378Z,1.67
2018-12-09T13:51:01.258Z,2.70
2018-12-09T13:55:04.217Z,2.90
2018-12-09T13:59:07.309Z,4.20
2018-12-09T14:03:10.185Z,1.83
2018-12-09T14:07:13.338Z,1.87
2018-12-09T14:11:16.329Z,2.63
2018-12-09T14:15:19.218Z,2.40
2018-12-09T14:19:22.078Z,3.03
2018-12-09T14:23:24.974Z,2.47
2018-12-09T14:27:28.221Z,2.73
2018-12-09T14:31:34.093Z,2.30
2018-12-09T14:35:37.172Z,2.90
2018-12-09T14:39:40.357Z,3.83
2018-12-09T14:43:43.217Z,3.70
2018-12-09T14:47:46.113Z,3.23
2018-12-09T14:51:48.989Z,4.03
2018-12-09T14:55:52.264Z,2.80
2018-12-09T14:59:55.151Z,2.63
2018-12-09T15:03:58.035Z,2.60
2018-12-09T15:08:01.095Z,4.20
2018-12-09T15:12:04.394Z,3.80
2018-12-09T15:16:07.302Z,3.27
2018-12-09T15:20:10.621Z,3.13
2018-12-09T15:24:13.554Z,3.40
2018-12-09T15:28:16.778Z,5.47
2018-12-09T15:32:19.657Z,3.53
2018-12-09T15:36:22.897Z,5.00
2018-12-09T15:40:25.777Z,3.50
2018-12-09T15:44:28.666Z,3.60
2018-12-09T15:48:31.545Z,3.60
2018-12-09T15:52:34.521Z,5.10
2018-12-09T15:56:37.405Z,4.30
2018-12-09T16:00:46.014Z,4.13
2018-12-09T16:04:49.061Z,3.50
2018-12-09T16:08:52.062Z,3.23
2018-12-09T16:12:54.937Z,3.20
2018-12-09T16:16:57.896Z,4.43
2018-12-09T16:21:00.838Z,4.30
2018-12-09T16:25:04.226Z,3.33
2018-12-09T16:29:07.125Z,3.93
2018-12-09T16:33:10.009Z,3.87
2018-12-09T16:37:12.954Z,4.23
2018-12-09T16:41:16.130Z,4.60
2018-12-09T16:45:19.173Z,4.20
2018-12-09T16:49:22.049Z,3.50
2018-12-09T16:53:25.214Z,3.77
2018-12-09T16:57:28.201Z,4.93
2018-12-09T17:01:31.069Z,4.30
2018-12-09T17:05:34.089Z,4.40
2018-12-09T17:09:36.989Z,4.10
2018-12-09T17:13:39.953Z,4.10
2018-12-09T17:17:42.909Z,3.80
2018-12-09T17:21:46.118Z,5.87
2018-12-09T17:25:48.998Z,4.97
2018-12-09T17:29:52.178Z,3.57
2018-12-09T17:33:55.189Z,3.27
2018-12-09T17:37:58.098Z,3.50
2018-12-09T17:42:01.255Z,4.50
2018-12-09T17:46:04.233Z,3.50
2018-12-09T17:50:07.337Z,4.63
2018-12-09T17:54:10.346Z,4.13
2018-12-09T17:58:13.443Z,5.70
2018-12-09T18:02:16.354Z,4.73
2018-12-09T18:06:19.327Z,4.57
2018-12-09T18:10:22.430Z,4.63
2018-12-09T18:14:25.354Z,4.53
2018-12-09T18:18:28.597Z,3.17
2018-12-09T18:22:31.526Z,3.30
2018-12-09T18:26:34.505Z,3.10
2018-12-09T18:30:37.711Z,2.80
2018-12-09T18:34:40.757Z,2.57
2018-12-09T18:38:43.757Z,3.07
2018-12-09T18:42:46.696Z,2.70
2018-12-09T18:46:49.841Z,3.40
2018-12-09T18:50:52.758Z,3.23
2018-12-09T18:54:55.703Z,2.77
2018-12-09T18:58:58.882Z,2.43
2018-12-09T19:03:01.814Z,3.20
2018-12-09T19:07:05.102Z,2.93
2018-12-09T19:11:08.093Z,3.93
2018-12-09T19:15:11.138Z,2.83
2018-12-09T19:19:14.111Z,3.10
2018-12-09T19:23:17.031Z,3.80
2018-12-09T19:27:19.997Z,5.43
2018-12-09T19:31:22.893Z,3.93
2018-12-09T19:35:26.005Z,2.90
2018-12-09T19:39:28.946Z,2.50
2018-12-09T19:43:32.095Z,4.40
2018-12-09T19:47:35.227Z,3.30
2018-12-09T19:51:38.228Z,3.27
2018-12-09T19:55:41.437Z,3.20
2018-12-09T19:59:44.447Z,4.20
2018-12-09T20:03:47.441Z,4.50
2018-12-09T20:07:50.367Z,3.97
2018-12-09T20:11:53.324Z,4.37
2018-12-09T20:15:56.275Z,3.10
2018-12-09T20:19:59.201Z,3.57
2018-12-09T20:24:02.169Z,3.57
2018-12-09T20:28:05.251Z,2.90
2018-12-09T20:32:08.147Z,5.13
2018-12-09T20:36:11.139Z,3.03
2018-12-09T20:40:14.042Z,3.30
2018-12-09T20:44:16.977Z,4.23
2018-12-09T20:48:19.932Z,3.40
2018-12-09T20:52:22.912Z,3.40
2018-12-09T20:56:25.994Z,4.63
2018-12-09T21:00:28.990Z,4.13
2018-12-09T21:04:32.152Z,3.47
2018-12-09T21:08:35.139Z,2.80
2018-12-09T21:12:38.365Z,3.90
2018-12-09T21:16:41.395Z,3.57
2018-12-09T21:20:44.347Z,3.10
2018-12-09T21:24:47.731Z,2.90
2018-12-09T21:28:51.695Z,3.73
2018-12-09T21:32:55.679Z,2.03
2018-12-09T21:36:58.702Z,2.60
2018-12-09T21:41:01.705Z,3.13
2018-12-09T21:45:04.861Z,2.27
2018-12-09T21:49:07.974Z,2.40
2018-12-09T21:53:11.036Z,2.87
2018-12-09T21:57:14.159Z,2.20
2018-12-09T22:01:17.053Z,3.00
2018-12-09T22:05:19.962Z,2.67
2018-12-09T22:09:23.211Z,1.77
2018-12-09T22:13:26.238Z,2.70
2018-12-09T22:17:29.226Z,3.93
2018-12-09T22:21:32.227Z,2.03
2018-12-09T22:25:35.160Z,2.60
2018-12-09T22:29:38.068Z,1.80
2018-12-09T22:33:41.035Z,2.30
2018-12-09T22:37:44.089Z,2.00
2018-12-09T22:41:47.245Z,2.43
2018-12-09T22:45:50.133Z,2.10
2018-12-09T22:49:53.075Z,2.13
2018-12-09T22:53:56.013Z,2.87
2018-12-09T22:57:58.921Z,3.33
2018-12-09T23:02:07.564Z,3.20
2018-12-09T23:06:10.470Z,3.70
2018-12-09T23:10:13.687Z,2.63
2018-12-09T23:14:16.652Z,3.40
2018-12-09T23:18:19.660Z,4.13
2018-12-09T23:22:22.554Z,3.07
2018-12-09T23:26:25.514Z,2.80
2018-12-09T23:30:28.747Z,2.90
2018-12-09T23:34:31.665Z,3.10
2018-12-09T23:38:34.582Z,3.00
2018-12-09T23:42:37.727Z,2.20
2018-12-09T23:46:40.947Z,2.20
2018-12-09T23:50:43.897Z,2.50
2018-12-09T23:54:46.917Z,3.67
2018-12-09T23:58:50.093Z,3.20
